• Welcome to DNForum.com - Domain Investor Forum, Free Domain Marketplace and a community for 45+ domain pros
    If you are new to domains and looking to buy, sell and learn about domains then you have come to the right place. DNForum is the oldest global domain name community on the internet and continues to grow every day. There are over 45,000 domainers on DNForum doing everything from buying domains, selling domains, using our free in-house built tools, learning about domains and discussing domains. Take a minute and Register.

Live Feed: .ORG Domain Name Auctions

Our live domain auction feed offers an easy way to secure the perfect web address for your business. With a vast selection of listings, you'll find domains with SEO potential, brandability, and instant recognition.

Live 117,120 auctions 0 selected
Collections
Domain DL Current bid Bids Ends in Platform REC RE WFAY DW
anthropologyoftechnology.org 24 $5.00 0 Sep 5, 09:00 2 .com .org 2013 3
anthropologyoftech.org 18 $5.00 0 Sep 5, 09:00 2 .com .org 2025 3
antiquehomearchitects.org 21 $5.00 0 Sep 5, 09:00 1 .org 2025 3
anywhereair.org 11 $5.00 0 Sep 5, 09:00 4 .com .net .org 2021 2
anzaprep.org 8 $15.00 0 Sep 5, 09:00 2 .com .org 2017 2
anzspin.org 7 $15.00 0 Sep 5, 09:00 4 .app .com .net 2024 0
apaarprint.org 10 $5.00 0 Sep 5, 09:00 1 .org 2025 3
apacheraceboat.org 14 $5.00 0 Sep 5, 09:00 4 .biz .info .net 2014 3
apacheraceboats.org 15 $5.00 0 Sep 5, 09:00 5 .biz .com .info 2014 3
apaco.org 5 $15.00 0 Sep 5, 09:00 11 .app .co.uk .com 2004 2
apartmentmaintenance.org 20 $5.00 0 Sep 5, 09:00 2 .com .org 2025 2
apcdn.org 5 $15.00 0 Sep 5, 09:00 7 .com .net .one 2017 2
apeacefulmindhomecare.org 21 $5.00 0 Sep 5, 09:00 2 .com .org 2025 5
apedal.org 6 $5.00 0 Sep 5, 09:00 2 .com .org 2013 2
apexmindai.org 10 $15.00 0 Sep 5, 09:00 4 .com .net .org 2025 3
aphonetextministry.org 18 $5.00 0 Sep 5, 09:00 1 .org 2025 4
apiculturabadajoz.org 17 $5.00 0 Sep 5, 09:00 2 .com .org 4
apkcraft.org 8 $5.00 0 Sep 5, 09:00 4 .com .lat .org 2015 0
apknice.org 7 $5.00 0 Sep 5, 09:00 3 .com .org .xyz 2024 0
aplaceforbeauty.org 15 $5.00 0 Sep 5, 09:00 7 .blog .co.uk .com 2025 3
aplanforlife.org 12 $15.00 0 Sep 5, 09:00 4 .co.uk .com .net 2013 4
apoapsis.org 8 $15.00 0 Sep 5, 09:00 15 .app .cloud .co.uk 2005 1
apocket.org 7 $15.00 0 Sep 5, 09:00 10 .com .de .link 2025 2
apollodestinationsreviews.org 25 $5.00 0 Sep 5, 09:00 3 .com .net .org 2023 3
apostleamos.org 11 $15.00 0 Sep 5, 09:00 1 .org 2023 2
appalachianasianadvocacyjournal.org 31 $5.00 0 Sep 5, 09:00 1 .org 2025 4
appalachianproject.org 18 $15.00 0 Sep 5, 09:00 2 .com .org 2017 2
appcopowersolutions.org 19 $5.00 0 Sep 5, 09:00 3 .com .net .org 4
appemergefwd.org 12 $5.00 0 Sep 5, 09:00 1 .org 2025 3
appfga.org 6 $5.00 0 Sep 5, 09:00 1 .org 2025 2
appfinancebusinessnow.org 21 $5.00 0 Sep 5, 09:00 2 .com .org 2025 4
appleclass.org 10 $5.00 0 Sep 5, 09:00 8 .com .de .info 2025 2
applesilicon.org 12 $5.00 0 Sep 5, 09:00 6 .app .co.uk .com 2021 2
applicationhub.org 14 $15.00 0 Sep 5, 09:00 6 .co.uk .com .de 2016 2
appliedbehaviortherapy.org 22 $15.00 0 Sep 5, 09:00 2 .com .org 2025 3
applivechat.org 11 $5.00 0 Sep 5, 09:00 1 .org 2025 3
appredirect.org 11 $5.00 0 Sep 5, 09:00 5 .com .net .online 2025 2
approtech.org 9 $15.00 0 Sep 5, 09:00 4 .co.uk .com .fr 2001 2
appteyo.org 7 $5.00 0 Sep 5, 09:00 5 .app .com .info 2025 3
apptribalappteam.org 16 $5.00 0 Sep 5, 09:00 1 .org 2025 4
aprendehaciendo.org 15 $15.00 0 Sep 5, 09:00 6 .com .net .online 2017 0
apscollegeofeducation.org 21 $5.00 0 Sep 5, 09:00 1 .org 2016 4
aptifit.org 7 $15.00 0 Sep 5, 09:00 2 .com .org 2025 3
apyouths.org 8 $15.00 0 Sep 5, 09:00 1 .org 2020 2
aqaar.org 5 $5.00 0 Sep 5, 09:00 13 .app .com .homes 2008 2
aquarama.org 8 $15.00 0 Sep 5, 09:00 12 .biz .cat .co.uk 2001 2
arabgolffederation.org 18 $5.00 0 Sep 5, 09:00 2 .com .org 2012 3
araincommunity.org 14 $5.00 0 Sep 5, 09:00 1 .org 2
araiofsunshineofnorthfloridainc.org 31 $5.00 0 Sep 5, 09:00 1 .org 2025 0
arapmi.org 6 $5.00 0 Sep 5, 09:00 1 .org 2006 3
arbabzadegan.org 12 $15.00 0 Sep 5, 09:00 1 .org 2025 4
arbaugh.org 7 $5.00 0 Sep 5, 09:00 4 .com .net .org 2
arbera.org 6 $15.00 0 Sep 5, 09:00 4 .com .de .org 2025 2
arcadiaartistcollective.org 23 $5.00 0 Sep 5, 09:00 2 .com .org 2025 3
archiesbackyardretreat.org 22 $5.00 0 Sep 5, 09:00 4 .com .info .net 2017 4
arcofhealingtrauma.org 18 $5.00 0 Sep 5, 09:00 2 .com .org 2025 4
arcsyslabs.org 10 $5.00 0 Sep 5, 09:00 2 .com .org 2025 3
arcticuk.org 8 $15.00 0 Sep 5, 09:00 3 .com .org .shop 2024 2
arcvenuehire.org 12 $15.00 0 Sep 5, 09:00 1 .org 2023 3
arenachi.org 8 $5.00 0 Sep 5, 09:00 6 .co.uk .com .net 2025 2
arestvyr.org 8 $15.00 0 Sep 5, 09:00 3 .com .info .org 2017 3
aretehubspot.org 12 $5.00 0 Sep 5, 09:00 6 .com .info .net 2025 3
areyouelect.org 11 $5.00 0 Sep 5, 09:00 3 .com .info .org 2017 3
argenttrustexchange.org 19 $15.00 0 Sep 5, 09:00 1 .org 3
argusmaterielstp.org 16 $5.00 0 Sep 5, 09:00 3 .com .fr .org 2013 3
argustp.org 7 $5.00 0 Sep 5, 09:00 4 .com .de .fr 2014 2
aribyamari.org 10 $5.00 0 Sep 5, 09:00 1 .org 2024 3
arihairextension.org 16 $15.00 0 Sep 5, 09:00 2 .com .org 2024 3
arisart.org 7 $15.00 0 Sep 5, 09:00 4 .com .de .org 2009 2
arizonaautopress.org 16 $5.00 0 Sep 5, 09:00 2 .com .org 2025 3
arkansaswatchdog.org 16 $5.00 0 Sep 5, 09:00 1 .org 2011 2
armeniancoin.org 12 $15.00 0 Sep 5, 09:00 2 .com .org 2025 2
armuzic.org 7 $15.00 0 Sep 5, 09:00 1 .org 2025 0
aroda.org 5 $5.00 0 Sep 5, 09:00 11 .cat .co.uk .com 2008 1
aromasofelamin.org 14 $5.00 0 Sep 5, 09:00 1 .org 2025 0
aroundannastable.org 16 $5.00 0 Sep 5, 09:00 3 .com .net .org 2016 3
aroundglobal.org 12 $15.00 0 Sep 5, 09:00 3 .com .net .org 2
arsocialandwelfarefoundation.org 28 $15.00 0 Sep 5, 09:00 1 .org 2025 5
artacademyai.org 12 $15.00 0 Sep 5, 09:00 5 .com .net .online 2025 3
artaproject.org 11 $5.00 0 Sep 5, 09:00 2 .com .org 2025 2
artbycharlotte.org 14 $5.00 0 Sep 5, 09:00 3 .co.uk .com .org 2025 3
artemobile.org 10 $15.00 0 Sep 5, 09:00 3 .com .de .org 2011 2
artestiq.org 8 $15.00 0 Sep 5, 09:00 5 .agency .com .info 2021 3
artforplanet.org 12 $5.00 0 Sep 5, 09:00 1 .org 2021 3
artforwardnigeria.org 17 $5.00 0 Sep 5, 09:00 2 .com .org 2024 3
artfulmusicimpact.org 17 $15.00 0 Sep 5, 09:00 1 .org 2025 3
arthal.org 6 $15.00 0 Sep 5, 09:00 6 .com .fr .games 2024 2
artintheforests.org 15 $15.00 0 Sep 5, 09:00 1 .org 2017 4
artisticresilience.org 18 $5.00 0 Sep 5, 09:00 2 .com .org 2011 2
artlifetravel.org 13 $15.00 0 Sep 5, 09:00 6 .biz .com .info 2024 3
artlindsleyministries.org 21 $15.00 0 Sep 5, 09:00 1 .org 2011 3
artlindsley.org 11 $15.00 0 Sep 5, 09:00 3 .com .net .org 2011 2
artnixaura.org 10 $15.00 0 Sep 5, 09:00 1 .org 2025 3
artofdevops.org 11 $5.00 0 Sep 5, 09:00 2 .blog .org 2021 4
artrich.org 7 $5.00 0 Sep 5, 09:00 4 .com .de .org 2017 2
arvestba.org 8 $15.00 0 Sep 5, 09:00 0 3
arvestsolid.org 11 $15.00 0 Sep 5, 09:00 0 3
arvolta.org 7 $5.00 0 Sep 5, 09:00 3 .com .net .org 2025 2
arzielinternational.org 19 $5.00 0 Sep 5, 09:00 1 .org 2023 0
ascendce.org 8 $15.00 0 Sep 5, 09:00 3 .com .net .org 2018 2
401–500 of 117,120
Back
Top Bottom